sensor_id;sensor_type;location;lat;lon;timestamp;P1;durP1;ratioP1;P2;durP2;ratioP2
6531;SDS011;3299;42.004;24.868;2022-09-16T00:00:19;12.73;;;2.80;;
6531;SDS011;3299;42.004;24.868;2022-09-16T00:02:45;9.85;;;3.15;;
6531;SDS011;3299;42.004;24.868;2022-09-16T00:05:11;10.32;;;2.95;;
6531;SDS011;3299;42.004;24.868;2022-09-16T00:07:36;10.90;;;2.83;;
6531;SDS011;3299;42.004;24.868;2022-09-16T00:10:02;9.88;;;2.92;;
6531;SDS011;3299;42.004;24.868;2022-09-16T00:12:29;11.88;;;3.00;;
6531;SDS011;3299;42.004;24.868;2022-09-16T00:14:54;13.25;;;2.80;;
6531;SDS011;3299;42.004;24.868;2022-09-16T00:17:20;9.75;;;2.80;;
6531;SDS011;3299;42.004;24.868;2022-09-16T00:19:46;10.90;;;3.30;;
6531;SDS011;3299;42.004;24.868;2022-09-16T00:22:13;10.13;;;2.53;;
6531;SDS011;3299;42.004;24.868;2022-09-16T00:24:39;11.50;;;3.13;;
6531;SDS011;3299;42.004;24.868;2022-09-16T00:27:04;12.45;;;3.03;;
6531;SDS011;3299;42.004;24.868;2022-09-16T00:29:29;11.68;;;3.03;;
6531;SDS011;3299;42.004;24.868;2022-09-16T00:31:55;6.70;;;2.55;;
6531;SDS011;3299;42.004;24.868;2022-09-16T00:34:20;8.43;;;2.65;;
6531;SDS011;3299;42.004;24.868;2022-09-16T00:36:46;10.07;;;2.67;;
6531;SDS011;3299;42.004;24.868;2022-09-16T00:39:11;11.25;;;3.17;;
6531;SDS011;3299;42.004;24.868;2022-09-16T00:41:37;11.63;;;2.70;;
6531;SDS011;3299;42.004;24.868;2022-09-16T00:44:03;9.65;;;2.80;;
6531;SDS011;3299;42.004;24.868;2022-09-16T00:49:00;13.48;;;2.55;;
6531;SDS011;3299;42.004;24.868;2022-09-16T00:51:29;5.45;;;2.63;;
6531;SDS011;3299;42.004;24.868;2022-09-16T00:53:59;9.10;;;2.97;;
6531;SDS011;3299;42.004;24.868;2022-09-16T00:56:30;7.88;;;2.45;;
6531;SDS011;3299;42.004;24.868;2022-09-16T00:59:05;10.95;;;3.50;;
6531;SDS011;3299;42.004;24.868;2022-09-16T01:01:41;7.38;;;2.17;;
6531;SDS011;3299;42.004;24.868;2022-09-16T01:04:30;6.40;;;2.78;;
6531;SDS011;3299;42.004;24.868;2022-09-16T01:06:56;17.52;;;2.38;;
6531;SDS011;3299;42.004;24.868;2022-09-16T01:09:22;5.85;;;2.25;;
6531;SDS011;3299;42.004;24.868;2022-09-16T01:11:49;5.18;;;2.35;;
6531;SDS011;3299;42.004;24.868;2022-09-16T01:14:16;12.40;;;2.95;;
6531;SDS011;3299;42.004;24.868;2022-09-16T01:28:23;7.45;;;2.05;;
6531;SDS011;3299;42.004;24.868;2022-09-16T01:31:02;6.80;;;2.42;;
6531;SDS011;3299;42.004;24.868;2022-09-16T01:49:53;8.20;;;2.17;;
6531;SDS011;3299;42.004;24.868;2022-09-16T01:55:02;5.35;;;1.95;;
6531;SDS011;3299;42.004;24.868;2022-09-16T02:00:10;8.95;;;1.90;;
6531;SDS011;3299;42.004;24.868;2022-09-16T02:02:40;4.60;;;1.38;;
6531;SDS011;3299;42.004;24.868;2022-09-16T02:05:15;8.00;;;2.00;;
6531;SDS011;3299;42.004;24.868;2022-09-16T02:07:51;11.07;;;2.30;;
6531;SDS011;3299;42.004;24.868;2022-09-16T02:10:27;10.73;;;2.15;;
6531;SDS011;3299;42.004;24.868;2022-09-16T02:12:57;7.00;;;1.70;;
6531;SDS011;3299;42.004;24.868;2022-09-16T02:15:28;9.73;;;1.90;;
6531;SDS011;3299;42.004;24.868;2022-09-16T02:17:59;10.05;;;1.85;;
6531;SDS011;3299;42.004;24.868;2022-09-16T02:20:30;11.52;;;2.45;;
6531;SDS011;3299;42.004;24.868;2022-09-16T02:23:04;13.05;;;2.33;;
6531;SDS011;3299;42.004;24.868;2022-09-16T02:25:38;6.35;;;2.15;;
6531;SDS011;3299;42.004;24.868;2022-09-16T02:28:11;10.43;;;2.15;;
6531;SDS011;3299;42.004;24.868;2022-09-16T02:30:42;6.43;;;1.70;;
6531;SDS011;3299;42.004;24.868;2022-09-16T02:33:12;7.00;;;2.08;;
6531;SDS011;3299;42.004;24.868;2022-09-16T02:35:40;8.32;;;2.15;;
6531;SDS011;3299;42.004;24.868;2022-09-16T02:38:22;8.90;;;2.50;;
6531;SDS011;3299;42.004;24.868;2022-09-16T02:40:54;8.88;;;2.42;;
6531;SDS011;3299;42.004;24.868;2022-09-16T02:43:22;8.73;;;2.45;;
6531;SDS011;3299;42.004;24.868;2022-09-16T02:48:46;5.20;;;1.70;;
6531;SDS011;3299;42.004;24.868;2022-09-16T02:54:15;9.45;;;2.03;;
6531;SDS011;3299;42.004;24.868;2022-09-16T02:56:49;6.90;;;1.88;;
6531;SDS011;3299;42.004;24.868;2022-09-16T02:59:14;9.73;;;2.33;;
6531;SDS011;3299;42.004;24.868;2022-09-16T03:01:42;9.43;;;1.73;;
6531;SDS011;3299;42.004;24.868;2022-09-16T03:04:09;8.25;;;2.58;;
6531;SDS011;3299;42.004;24.868;2022-09-16T03:06:36;7.22;;;1.70;;
6531;SDS011;3299;42.004;24.868;2022-09-16T03:09:04;10.05;;;2.10;;
6531;SDS011;3299;42.004;24.868;2022-09-16T03:19:25;10.65;;;2.30;;
6531;SDS011;3299;42.004;24.868;2022-09-16T03:27:03;6.22;;;2.08;;
6531;SDS011;3299;42.004;24.868;2022-09-16T03:29:46;10.43;;;2.50;;
6531;SDS011;3299;42.004;24.868;2022-09-16T03:37:20;10.43;;;2.40;;
6531;SDS011;3299;42.004;24.868;2022-09-16T03:39:51;5.68;;;1.73;;
6531;SDS011;3299;42.004;24.868;2022-09-16T03:42:21;6.75;;;2.17;;
6531;SDS011;3299;42.004;24.868;2022-09-16T03:44:47;4.05;;;1.85;;
6531;SDS011;3299;42.004;24.868;2022-09-16T03:47:13;9.10;;;2.00;;
6531;SDS011;3299;42.004;24.868;2022-09-16T03:49:39;9.18;;;2.17;;
6531;SDS011;3299;42.004;24.868;2022-09-16T03:52:04;7.82;;;2.00;;
6531;SDS011;3299;42.004;24.868;2022-09-16T03:54:31;7.60;;;1.65;;
6531;SDS011;3299;42.004;24.868;2022-09-16T03:56:56;8.35;;;1.98;;
6531;SDS011;3299;42.004;24.868;2022-09-16T03:59:22;9.07;;;2.28;;
6531;SDS011;3299;42.004;24.868;2022-09-16T04:01:47;8.73;;;2.05;;
6531;SDS011;3299;42.004;24.868;2022-09-16T04:04:13;8.52;;;2.30;;
6531;SDS011;3299;42.004;24.868;2022-09-16T04:06:39;4.47;;;1.75;;
6531;SDS011;3299;42.004;24.868;2022-09-16T04:09:05;7.50;;;2.60;;
6531;SDS011;3299;42.004;24.868;2022-09-16T04:11:32;8.73;;;1.80;;
6531;SDS011;3299;42.004;24.868;2022-09-16T04:13:59;7.88;;;3.08;;
6531;SDS011;3299;42.004;24.868;2022-09-16T04:16:24;9.00;;;2.47;;
6531;SDS011;3299;42.004;24.868;2022-09-16T04:18:51;11.68;;;2.25;;
6531;SDS011;3299;42.004;24.868;2022-09-16T04:21:16;7.65;;;2.03;;
6531;SDS011;3299;42.004;24.868;2022-09-16T04:23:42;6.25;;;2.17;;
6531;SDS011;3299;42.004;24.868;2022-09-16T04:26:08;9.10;;;2.20;;
6531;SDS011;3299;42.004;24.868;2022-09-16T04:28:35;7.70;;;1.70;;
6531;SDS011;3299;42.004;24.868;2022-09-16T04:31:04;9.15;;;2.55;;
6531;SDS011;3299;42.004;24.868;2022-09-16T04:33:32;6.85;;;1.63;;
6531;SDS011;3299;42.004;24.868;2022-09-16T04:38:28;9.43;;;2.83;;
6531;SDS011;3299;42.004;24.868;2022-09-16T04:40:58;10.18;;;2.72;;
6531;SDS011;3299;42.004;24.868;2022-09-16T04:43:25;6.93;;;2.20;;
6531;SDS011;3299;42.004;24.868;2022-09-16T04:45:50;12.52;;;2.20;;
6531;SDS011;3299;42.004;24.868;2022-09-16T04:48:15;13.18;;;2.38;;
6531;SDS011;3299;42.004;24.868;2022-09-16T04:50:42;8.93;;;1.92;;
6531;SDS011;3299;42.004;24.868;2022-09-16T04:53:07;8.75;;;1.70;;
6531;SDS011;3299;42.004;24.868;2022-09-16T04:55:32;10.18;;;2.25;;
6531;SDS011;3299;42.004;24.868;2022-09-16T04:57:58;12.93;;;2.65;;
6531;SDS011;3299;42.004;24.868;2022-09-16T05:00:24;7.45;;;1.95;;
6531;SDS011;3299;42.004;24.868;2022-09-16T05:02:50;7.78;;;1.80;;
6531;SDS011;3299;42.004;24.868;2022-09-16T05:05:18;4.85;;;2.28;;
6531;SDS011;3299;42.004;24.868;2022-09-16T05:07:44;10.82;;;2.60;;
6531;SDS011;3299;42.004;24.868;2022-09-16T05:10:09;7.85;;;2.15;;
6531;SDS011;3299;42.004;24.868;2022-09-16T05:12:36;4.65;;;2.08;;
6531;SDS011;3299;42.004;24.868;2022-09-16T05:15:01;7.07;;;2.58;;
6531;SDS011;3299;42.004;24.868;2022-09-16T05:17:30;7.10;;;2.03;;
6531;SDS011;3299;42.004;24.868;2022-09-16T05:19:56;7.22;;;2.70;;
6531;SDS011;3299;42.004;24.868;2022-09-16T05:22:22;8.38;;;2.08;;
6531;SDS011;3299;42.004;24.868;2022-09-16T05:24:48;7.28;;;2.17;;
6531;SDS011;3299;42.004;24.868;2022-09-16T05:27:13;11.05;;;2.55;;
6531;SDS011;3299;42.004;24.868;2022-09-16T05:29:39;7.55;;;2.28;;
6531;SDS011;3299;42.004;24.868;2022-09-16T05:32:04;13.55;;;2.30;;
6531;SDS011;3299;42.004;24.868;2022-09-16T05:34:30;9.00;;;2.03;;
6531;SDS011;3299;42.004;24.868;2022-09-16T05:36:55;7.13;;;1.98;;
6531;SDS011;3299;42.004;24.868;2022-09-16T05:39:21;11.75;;;2.08;;
6531;SDS011;3299;42.004;24.868;2022-09-16T05:41:48;7.88;;;2.40;;
6531;SDS011;3299;42.004;24.868;2022-09-16T05:44:14;10.25;;;2.00;;
6531;SDS011;3299;42.004;24.868;2022-09-16T05:46:40;2.47;;;1.60;;
6531;SDS011;3299;42.004;24.868;2022-09-16T05:49:09;6.50;;;2.00;;
6531;SDS011;3299;42.004;24.868;2022-09-16T05:51:35;8.32;;;2.08;;
6531;SDS011;3299;42.004;24.868;2022-09-16T05:54:02;5.00;;;1.95;;
6531;SDS011;3299;42.004;24.868;2022-09-16T05:56:28;6.55;;;2.10;;
6531;SDS011;3299;42.004;24.868;2022-09-16T05:58:57;6.15;;;1.98;;
6531;SDS011;3299;42.004;24.868;2022-09-16T06:01:25;7.75;;;1.55;;
6531;SDS011;3299;42.004;24.868;2022-09-16T06:03:52;6.35;;;2.30;;
6531;SDS011;3299;42.004;24.868;2022-09-16T06:06:32;8.07;;;2.35;;
6531;SDS011;3299;42.004;24.868;2022-09-16T06:09:00;11.32;;;1.98;;
6531;SDS011;3299;42.004;24.868;2022-09-16T06:11:30;11.85;;;2.30;;
6531;SDS011;3299;42.004;24.868;2022-09-16T06:13:57;8.35;;;2.20;;
6531;SDS011;3299;42.004;24.868;2022-09-16T06:16:27;8.43;;;2.08;;
6531;SDS011;3299;42.004;24.868;2022-09-16T06:18:56;6.22;;;2.05;;
6531;SDS011;3299;42.004;24.868;2022-09-16T06:21:21;15.02;;;2.30;;
6531;SDS011;3299;42.004;24.868;2022-09-16T06:23:47;8.98;;;2.60;;
6531;SDS011;3299;42.004;24.868;2022-09-16T06:26:14;8.70;;;2.30;;
6531;SDS011;3299;42.004;24.868;2022-09-16T06:28:42;6.53;;;1.92;;
6531;SDS011;3299;42.004;24.868;2022-09-16T06:31:12;6.28;;;2.38;;
6531;SDS011;3299;42.004;24.868;2022-09-16T06:33:39;9.55;;;2.40;;
6531;SDS011;3299;42.004;24.868;2022-09-16T06:36:12;9.75;;;2.28;;
6531;SDS011;3299;42.004;24.868;2022-09-16T06:38:40;8.35;;;2.53;;
6531;SDS011;3299;42.004;24.868;2022-09-16T06:41:08;9.52;;;2.25;;
6531;SDS011;3299;42.004;24.868;2022-09-16T06:43:35;5.95;;;1.88;;
6531;SDS011;3299;42.004;24.868;2022-09-16T06:46:01;7.15;;;2.17;;
6531;SDS011;3299;42.004;24.868;2022-09-16T06:48:38;9.30;;;2.25;;
6531;SDS011;3299;42.004;24.868;2022-09-16T06:51:06;12.90;;;2.90;;
6531;SDS011;3299;42.004;24.868;2022-09-16T06:53:34;9.18;;;2.30;;
6531;SDS011;3299;42.004;24.868;2022-09-16T06:56:04;8.60;;;2.55;;
6531;SDS011;3299;42.004;24.868;2022-09-16T06:58:31;7.82;;;2.13;;
6531;SDS011;3299;42.004;24.868;2022-09-16T07:00:58;13.00;;;2.40;;
6531;SDS011;3299;42.004;24.868;2022-09-16T07:03:24;12.00;;;3.13;;
6531;SDS011;3299;42.004;24.868;2022-09-16T07:05:59;6.20;;;2.05;;
6531;SDS011;3299;42.004;24.868;2022-09-16T07:08:28;9.55;;;2.53;;
6531;SDS011;3299;42.004;24.868;2022-09-16T07:10:56;9.23;;;2.22;;
6531;SDS011;3299;42.004;24.868;2022-09-16T07:13:23;9.27;;;2.00;;
6531;SDS011;3299;42.004;24.868;2022-09-16T07:15:49;10.95;;;2.40;;
6531;SDS011;3299;42.004;24.868;2022-09-16T07:18:15;15.13;;;3.35;;
6531;SDS011;3299;42.004;24.868;2022-09-16T07:20:40;15.05;;;3.03;;
6531;SDS011;3299;42.004;24.868;2022-09-16T07:23:06;15.30;;;3.45;;
6531;SDS011;3299;42.004;24.868;2022-09-16T07:25:31;11.85;;;3.95;;
6531;SDS011;3299;42.004;24.868;2022-09-16T07:27:57;12.55;;;3.30;;
6531;SDS011;3299;42.004;24.868;2022-09-16T07:30:22;15.48;;;4.25;;
6531;SDS011;3299;42.004;24.868;2022-09-16T07:32:47;15.10;;;4.13;;
6531;SDS011;3299;42.004;24.868;2022-09-16T07:35:13;11.73;;;4.40;;
6531;SDS011;3299;42.004;24.868;2022-09-16T07:37:38;14.48;;;4.50;;
6531;SDS011;3299;42.004;24.868;2022-09-16T07:40:04;12.02;;;4.40;;
6531;SDS011;3299;42.004;24.868;2022-09-16T07:42:30;16.30;;;5.13;;
6531;SDS011;3299;42.004;24.868;2022-09-16T07:44:56;20.42;;;4.60;;
6531;SDS011;3299;42.004;24.868;2022-09-16T07:47:21;16.27;;;4.32;;
6531;SDS011;3299;42.004;24.868;2022-09-16T07:49:47;25.80;;;4.90;;
6531;SDS011;3299;42.004;24.868;2022-09-16T07:52:12;24.50;;;4.45;;
6531;SDS011;3299;42.004;24.868;2022-09-16T07:54:38;21.42;;;4.65;;
6531;SDS011;3299;42.004;24.868;2022-09-16T07:57:04;16.73;;;4.53;;
6531;SDS011;3299;42.004;24.868;2022-09-16T07:59:29;22.77;;;5.47;;
6531;SDS011;3299;42.004;24.868;2022-09-16T08:01:55;22.23;;;4.97;;
6531;SDS011;3299;42.004;24.868;2022-09-16T08:04:20;24.17;;;4.78;;
6531;SDS011;3299;42.004;24.868;2022-09-16T08:06:46;27.40;;;5.68;;
6531;SDS011;3299;42.004;24.868;2022-09-16T08:09:11;26.58;;;5.32;;
6531;SDS011;3299;42.004;24.868;2022-09-16T08:11:39;28.77;;;6.00;;
6531;SDS011;3299;42.004;24.868;2022-09-16T08:14:04;22.80;;;5.85;;
6531;SDS011;3299;42.004;24.868;2022-09-16T08:16:29;21.90;;;5.40;;
6531;SDS011;3299;42.004;24.868;2022-09-16T08:18:56;15.18;;;4.57;;
6531;SDS011;3299;42.004;24.868;2022-09-16T08:21:23;25.38;;;4.80;;
6531;SDS011;3299;42.004;24.868;2022-09-16T08:23:51;13.43;;;4.47;;
6531;SDS011;3299;42.004;24.868;2022-09-16T08:26:17;19.13;;;5.32;;
6531;SDS011;3299;42.004;24.868;2022-09-16T08:28:43;28.25;;;5.60;;
6531;SDS011;3299;42.004;24.868;2022-09-16T08:31:10;19.10;;;5.20;;
6531;SDS011;3299;42.004;24.868;2022-09-16T08:33:37;28.30;;;5.18;;
6531;SDS011;3299;42.004;24.868;2022-09-16T08:36:05;17.92;;;5.20;;
6531;SDS011;3299;42.004;24.868;2022-09-16T08:38:35;17.23;;;5.28;;
6531;SDS011;3299;42.004;24.868;2022-09-16T08:41:14;22.67;;;5.40;;
6531;SDS011;3299;42.004;24.868;2022-09-16T08:46:55;17.23;;;4.72;;
6531;SDS011;3299;42.004;24.868;2022-09-16T08:49:28;13.52;;;4.57;;
6531;SDS011;3299;42.004;24.868;2022-09-16T08:52:11;18.38;;;4.85;;
6531;SDS011;3299;42.004;24.868;2022-09-16T08:54:44;21.75;;;4.25;;
6531;SDS011;3299;42.004;24.868;2022-09-16T08:57:17;18.13;;;4.63;;
6531;SDS011;3299;42.004;24.868;2022-09-16T08:59:47;25.40;;;4.40;;
6531;SDS011;3299;42.004;24.868;2022-09-16T09:02:27;14.05;;;4.55;;
6531;SDS011;3299;42.004;24.868;2022-09-16T09:05:01;10.27;;;4.05;;
6531;SDS011;3299;42.004;24.868;2022-09-16T09:13:17;16.83;;;3.88;;
6531;SDS011;3299;42.004;24.868;2022-09-16T09:28:55;17.13;;;4.68;;
6531;SDS011;3299;42.004;24.868;2022-09-16T09:31:30;14.82;;;4.28;;
6531;SDS011;3299;42.004;24.868;2022-09-16T09:34:04;14.73;;;5.90;;
6531;SDS011;3299;42.004;24.868;2022-09-16T09:42:38;13.52;;;4.20;;
6531;SDS011;3299;42.004;24.868;2022-09-16T09:47:43;9.77;;;3.65;;
6531;SDS011;3299;42.004;24.868;2022-09-16T10:20:32;9.65;;;3.47;;
6531;SDS011;3299;42.004;24.868;2022-09-16T10:23:05;15.10;;;4.03;;
6531;SDS011;3299;42.004;24.868;2022-09-16T10:25:33;8.25;;;3.40;;
6531;SDS011;3299;42.004;24.868;2022-09-16T10:28:00;11.88;;;3.80;;
6531;SDS011;3299;42.004;24.868;2022-09-16T10:30:30;12.18;;;3.40;;
6531;SDS011;3299;42.004;24.868;2022-09-16T10:33:10;14.10;;;4.10;;
6531;SDS011;3299;42.004;24.868;2022-09-16T10:35:49;10.95;;;3.60;;
6531;SDS011;3299;42.004;24.868;2022-09-16T10:38:32;12.32;;;3.38;;
6531;SDS011;3299;42.004;24.868;2022-09-16T10:41:08;12.85;;;3.60;;
6531;SDS011;3299;42.004;24.868;2022-09-16T10:43:35;14.57;;;3.33;;
6531;SDS011;3299;42.004;24.868;2022-09-16T10:46:03;14.05;;;3.55;;
6531;SDS011;3299;42.004;24.868;2022-09-16T10:48:29;16.13;;;3.78;;
6531;SDS011;3299;42.004;24.868;2022-09-16T10:50:56;15.10;;;3.58;;
6531;SDS011;3299;42.004;24.868;2022-09-16T10:53:29;13.65;;;3.35;;
6531;SDS011;3299;42.004;24.868;2022-09-16T10:56:06;11.82;;;3.40;;
6531;SDS011;3299;42.004;24.868;2022-09-16T10:58:43;11.73;;;3.40;;
6531;SDS011;3299;42.004;24.868;2022-09-16T11:14:48;14.85;;;3.22;;
6531;SDS011;3299;42.004;24.868;2022-09-16T11:42:16;16.58;;;3.80;;
6531;SDS011;3299;42.004;24.868;2022-09-16T11:50:34;12.20;;;3.55;;
6531;SDS011;3299;42.004;24.868;2022-09-16T11:55:50;9.85;;;3.05;;
6531;SDS011;3299;42.004;24.868;2022-09-16T12:01:27;16.73;;;4.10;;
6531;SDS011;3299;42.004;24.868;2022-09-16T12:06:59;9.40;;;3.47;;
6531;SDS011;3299;42.004;24.868;2022-09-16T12:12:19;13.95;;;3.20;;
6531;SDS011;3299;42.004;24.868;2022-09-16T12:14:53;9.85;;;3.10;;
6531;SDS011;3299;42.004;24.868;2022-09-16T12:17:25;13.70;;;3.22;;
6531;SDS011;3299;42.004;24.868;2022-09-16T12:20:15;18.10;;;3.78;;
6531;SDS011;3299;42.004;24.868;2022-09-16T12:22:47;11.52;;;3.33;;
6531;SDS011;3299;42.004;24.868;2022-09-16T12:27:56;15.70;;;3.78;;
6531;SDS011;3299;42.004;24.868;2022-09-16T12:30:39;12.57;;;3.22;;
6531;SDS011;3299;42.004;24.868;2022-09-16T12:36:12;10.95;;;3.38;;
6531;SDS011;3299;42.004;24.868;2022-09-16T12:38:42;17.00;;;3.38;;
6531;SDS011;3299;42.004;24.868;2022-09-16T12:41:11;11.23;;;3.40;;
6531;SDS011;3299;42.004;24.868;2022-09-16T12:53:19;10.88;;;3.22;;
6531;SDS011;3299;42.004;24.868;2022-09-16T13:04:41;13.88;;;3.80;;
6531;SDS011;3299;42.004;24.868;2022-09-16T13:06:52;11.68;;;3.50;;
6531;SDS011;3299;42.004;24.868;2022-09-16T13:09:30;15.75;;;3.90;;
6531;SDS011;3299;42.004;24.868;2022-09-16T13:12:20;18.30;;;3.63;;
6531;SDS011;3299;42.004;24.868;2022-09-16T13:14:50;21.23;;;3.65;;
6531;SDS011;3299;42.004;24.868;2022-09-16T13:17:26;13.00;;;3.22;;
6531;SDS011;3299;42.004;24.868;2022-09-16T13:22:46;16.50;;;3.20;;
6531;SDS011;3299;42.004;24.868;2022-09-16T13:28:34;13.57;;;2.88;;
6531;SDS011;3299;42.004;24.868;2022-09-16T13:34:09;10.32;;;2.83;;
6531;SDS011;3299;42.004;24.868;2022-09-16T13:36:38;12.82;;;2.83;;
6531;SDS011;3299;42.004;24.868;2022-09-16T13:39:05;10.13;;;2.80;;
6531;SDS011;3299;42.004;24.868;2022-09-16T13:47:14;19.58;;;2.83;;
6531;SDS011;3299;42.004;24.868;2022-09-16T13:52:11;13.65;;;3.03;;
6531;SDS011;3299;42.004;24.868;2022-09-16T13:54:41;10.10;;;2.83;;
6531;SDS011;3299;42.004;24.868;2022-09-16T14:02:56;10.30;;;2.50;;
6531;SDS011;3299;42.004;24.868;2022-09-16T14:14:02;9.05;;;2.40;;
6531;SDS011;3299;42.004;24.868;2022-09-16T14:16:33;7.68;;;2.63;;
6531;SDS011;3299;42.004;24.868;2022-09-16T14:24:43;12.30;;;2.60;;
6531;SDS011;3299;42.004;24.868;2022-09-16T14:29:58;11.35;;;2.63;;
6531;SDS011;3299;42.004;24.868;2022-09-16T14:32:26;10.40;;;2.90;;
6531;SDS011;3299;42.004;24.868;2022-09-16T14:34:55;9.05;;;2.70;;
6531;SDS011;3299;42.004;24.868;2022-09-16T14:37:24;14.85;;;2.67;;
6531;SDS011;3299;42.004;24.868;2022-09-16T14:39:52;7.75;;;2.70;;
6531;SDS011;3299;42.004;24.868;2022-09-16T14:42:20;6.57;;;2.63;;
6531;SDS011;3299;42.004;24.868;2022-09-16T14:44:51;11.80;;;2.42;;
6531;SDS011;3299;42.004;24.868;2022-09-16T14:47:23;8.40;;;3.03;;
6531;SDS011;3299;42.004;24.868;2022-09-16T14:49:55;10.75;;;2.20;;
6531;SDS011;3299;42.004;24.868;2022-09-16T14:52:32;10.65;;;2.30;;
6531;SDS011;3299;42.004;24.868;2022-09-16T14:54:59;9.70;;;2.50;;
6531;SDS011;3299;42.004;24.868;2022-09-16T14:57:27;10.05;;;2.35;;
6531;SDS011;3299;42.004;24.868;2022-09-16T14:59:57;13.60;;;2.50;;
6531;SDS011;3299;42.004;24.868;2022-09-16T15:05:02;5.68;;;2.08;;
6531;SDS011;3299;42.004;24.868;2022-09-16T15:07:31;8.05;;;2.30;;
6531;SDS011;3299;42.004;24.868;2022-09-16T15:12:30;8.70;;;3.10;;
6531;SDS011;3299;42.004;24.868;2022-09-16T15:18:02;10.55;;;2.28;;
6531;SDS011;3299;42.004;24.868;2022-09-16T15:20:36;7.10;;;2.53;;
6531;SDS011;3299;42.004;24.868;2022-09-16T15:23:05;4.25;;;2.63;;
6531;SDS011;3299;42.004;24.868;2022-09-16T15:25:49;10.75;;;2.25;;
6531;SDS011;3299;42.004;24.868;2022-09-16T15:28:24;14.38;;;2.38;;
6531;SDS011;3299;42.004;24.868;2022-09-16T15:30:53;8.00;;;2.15;;
6531;SDS011;3299;42.004;24.868;2022-09-16T15:35:57;8.23;;;2.20;;
6531;SDS011;3299;42.004;24.868;2022-09-16T15:38:22;6.28;;;2.15;;
6531;SDS011;3299;42.004;24.868;2022-09-16T15:41:09;8.43;;;2.13;;
6531;SDS011;3299;42.004;24.868;2022-09-16T15:43:43;5.40;;;1.88;;
6531;SDS011;3299;42.004;24.868;2022-09-16T15:46:17;3.05;;;1.75;;
6531;SDS011;3299;42.004;24.868;2022-09-16T15:48:51;11.23;;;2.72;;
6531;SDS011;3299;42.004;24.868;2022-09-16T15:51:53;6.22;;;2.38;;
6531;SDS011;3299;42.004;24.868;2022-09-16T15:54:18;4.20;;;2.10;;
6531;SDS011;3299;42.004;24.868;2022-09-16T15:57:03;11.35;;;2.38;;
6531;SDS011;3299;42.004;24.868;2022-09-16T15:59:53;5.20;;;2.08;;
6531;SDS011;3299;42.004;24.868;2022-09-16T16:07:48;6.43;;;2.10;;
6531;SDS011;3299;42.004;24.868;2022-09-16T16:10:17;5.10;;;2.50;;
6531;SDS011;3299;42.004;24.868;2022-09-16T16:12:46;9.63;;;2.28;;
6531;SDS011;3299;42.004;24.868;2022-09-16T16:15:16;9.27;;;2.10;;
6531;SDS011;3299;42.004;24.868;2022-09-16T16:17:45;6.72;;;1.73;;
6531;SDS011;3299;42.004;24.868;2022-09-16T16:20:12;5.40;;;1.98;;
6531;SDS011;3299;42.004;24.868;2022-09-16T16:22:39;8.93;;;2.30;;
6531;SDS011;3299;42.004;24.868;2022-09-16T16:25:05;5.03;;;2.05;;
6531;SDS011;3299;42.004;24.868;2022-09-16T16:27:32;4.55;;;2.05;;
6531;SDS011;3299;42.004;24.868;2022-09-16T16:29:57;5.65;;;2.38;;
6531;SDS011;3299;42.004;24.868;2022-09-16T16:32:23;9.98;;;2.17;;
6531;SDS011;3299;42.004;24.868;2022-09-16T16:34:49;4.72;;;1.85;;
6531;SDS011;3299;42.004;24.868;2022-09-16T16:37:15;7.05;;;2.38;;
6531;SDS011;3299;42.004;24.868;2022-09-16T16:39:41;10.93;;;3.08;;
6531;SDS011;3299;42.004;24.868;2022-09-16T16:42:10;7.88;;;2.25;;
6531;SDS011;3299;42.004;24.868;2022-09-16T16:44:36;8.70;;;2.72;;
6531;SDS011;3299;42.004;24.868;2022-09-16T16:47:02;8.57;;;2.28;;
6531;SDS011;3299;42.004;24.868;2022-09-16T16:49:28;7.78;;;2.33;;
6531;SDS011;3299;42.004;24.868;2022-09-16T16:51:54;7.50;;;2.50;;
6531;SDS011;3299;42.004;24.868;2022-09-16T16:54:21;15.85;;;2.80;;
6531;SDS011;3299;42.004;24.868;2022-09-16T16:56:47;11.02;;;2.75;;
6531;SDS011;3299;42.004;24.868;2022-09-16T16:59:13;6.35;;;2.28;;
6531;SDS011;3299;42.004;24.868;2022-09-16T17:01:40;8.07;;;2.92;;
6531;SDS011;3299;42.004;24.868;2022-09-16T17:04:06;5.88;;;2.25;;
6531;SDS011;3299;42.004;24.868;2022-09-16T17:06:33;9.68;;;2.55;;
6531;SDS011;3299;42.004;24.868;2022-09-16T17:08:59;6.43;;;2.90;;
6531;SDS011;3299;42.004;24.868;2022-09-16T17:11:26;6.90;;;2.60;;
6531;SDS011;3299;42.004;24.868;2022-09-16T17:13:55;7.82;;;2.63;;
6531;SDS011;3299;42.004;24.868;2022-09-16T17:16:23;10.82;;;2.22;;
6531;SDS011;3299;42.004;24.868;2022-09-16T17:18:50;12.20;;;3.15;;
6531;SDS011;3299;42.004;24.868;2022-09-16T17:21:20;6.28;;;2.15;;
6531;SDS011;3299;42.004;24.868;2022-09-16T17:23:50;5.97;;;2.80;;
6531;SDS011;3299;42.004;24.868;2022-09-16T17:26:17;9.77;;;2.65;;
6531;SDS011;3299;42.004;24.868;2022-09-16T17:28:44;11.02;;;2.97;;
6531;SDS011;3299;42.004;24.868;2022-09-16T17:33:48;6.18;;;2.75;;
6531;SDS011;3299;42.004;24.868;2022-09-16T17:36:18;6.57;;;2.83;;
6531;SDS011;3299;42.004;24.868;2022-09-16T17:38:46;6.95;;;2.58;;
6531;SDS011;3299;42.004;24.868;2022-09-16T17:41:13;7.55;;;2.75;;
6531;SDS011;3299;42.004;24.868;2022-09-16T17:43:41;11.50;;;3.15;;
6531;SDS011;3299;42.004;24.868;2022-09-16T17:46:11;8.93;;;2.75;;
6531;SDS011;3299;42.004;24.868;2022-09-16T17:48:39;7.72;;;2.70;;
6531;SDS011;3299;42.004;24.868;2022-09-16T17:51:05;9.32;;;1.92;;
6531;SDS011;3299;42.004;24.868;2022-09-16T17:53:32;8.45;;;2.42;;
6531;SDS011;3299;42.004;24.868;2022-09-16T17:56:05;6.18;;;2.55;;
6531;SDS011;3299;42.004;24.868;2022-09-16T17:58:32;10.73;;;3.30;;
6531;SDS011;3299;42.004;24.868;2022-09-16T18:01:08;8.98;;;2.30;;
6531;SDS011;3299;42.004;24.868;2022-09-16T18:03:34;8.27;;;2.70;;
6531;SDS011;3299;42.004;24.868;2022-09-16T18:06:07;12.98;;;2.72;;
6531;SDS011;3299;42.004;24.868;2022-09-16T18:08:38;10.70;;;2.25;;
6531;SDS011;3299;42.004;24.868;2022-09-16T18:11:07;7.05;;;2.75;;
6531;SDS011;3299;42.004;24.868;2022-09-16T18:13:35;8.23;;;2.40;;
6531;SDS011;3299;42.004;24.868;2022-09-16T18:16:05;9.15;;;2.47;;
6531;SDS011;3299;42.004;24.868;2022-09-16T18:18:35;7.25;;;2.13;;
6531;SDS011;3299;42.004;24.868;2022-09-16T18:21:02;9.82;;;2.67;;
6531;SDS011;3299;42.004;24.868;2022-09-16T18:23:30;7.78;;;2.17;;
6531;SDS011;3299;42.004;24.868;2022-09-16T18:25:56;11.10;;;2.88;;
6531;SDS011;3299;42.004;24.868;2022-09-16T18:28:22;13.68;;;3.13;;
6531;SDS011;3299;42.004;24.868;2022-09-16T18:30:59;8.70;;;2.63;;
6531;SDS011;3299;42.004;24.868;2022-09-16T18:33:30;5.82;;;2.78;;
6531;SDS011;3299;42.004;24.868;2022-09-16T18:35:59;7.20;;;2.10;;
6531;SDS011;3299;42.004;24.868;2022-09-16T18:38:26;7.85;;;2.40;;
6531;SDS011;3299;42.004;24.868;2022-09-16T18:43:38;10.43;;;2.15;;
6531;SDS011;3299;42.004;24.868;2022-09-16T18:46:15;6.00;;;2.42;;
6531;SDS011;3299;42.004;24.868;2022-09-16T18:48:44;10.65;;;2.60;;
6531;SDS011;3299;42.004;24.868;2022-09-16T18:53:40;6.60;;;1.95;;
6531;SDS011;3299;42.004;24.868;2022-09-16T18:56:09;10.00;;;2.22;;
6531;SDS011;3299;42.004;24.868;2022-09-16T18:58:35;8.50;;;2.08;;
6531;SDS011;3299;42.004;24.868;2022-09-16T19:03:47;4.75;;;2.10;;
6531;SDS011;3299;42.004;24.868;2022-09-16T19:06:13;5.40;;;2.33;;
6531;SDS011;3299;42.004;24.868;2022-09-16T19:08:38;5.95;;;2.17;;
6531;SDS011;3299;42.004;24.868;2022-09-16T19:11:04;9.52;;;2.80;;
6531;SDS011;3299;42.004;24.868;2022-09-16T19:13:33;4.95;;;2.33;;
6531;SDS011;3299;42.004;24.868;2022-09-16T19:15:58;5.70;;;2.42;;
6531;SDS011;3299;42.004;24.868;2022-09-16T19:18:25;10.93;;;2.33;;
6531;SDS011;3299;42.004;24.868;2022-09-16T19:20:58;8.65;;;2.22;;
6531;SDS011;3299;42.004;24.868;2022-09-16T19:23:24;3.90;;;2.45;;
6531;SDS011;3299;42.004;24.868;2022-09-16T19:25:50;11.85;;;3.45;;
6531;SDS011;3299;42.004;24.868;2022-09-16T19:28:16;9.93;;;2.50;;
6531;SDS011;3299;42.004;24.868;2022-09-16T19:30:42;5.00;;;2.20;;
6531;SDS011;3299;42.004;24.868;2022-09-16T19:33:07;7.53;;;2.35;;
6531;SDS011;3299;42.004;24.868;2022-09-16T19:35:33;6.70;;;2.20;;